Time;durP1;ratioP1;P1;durP2;ratioP2;P2;SDS_P1;SDS_P2;PMS_P1;PMS_P2;Temp;Humidity;BMP_temperature;BMP_pressure;BME280_temperature;BME280_humidity;BME280_pressure;Samples;Min_cycle;Max_cycle;Signal;HPM_P1;HPM_P2
2023/03/25 00:00:15;;;;;;;4.45;1.60;;;8.00;99.90;;;;;;4992766;28;20293;-80
2023/03/25 00:02:43;;;;;;;1.50;1.40;;;8.10;99.90;;;;;;4991192;28;20411;-80
2023/03/25 00:05:10;;;;;;;1.17;1.17;;;8.10;99.90;;;;;;4988932;28;20035;-80
2023/03/25 00:07:35;;;;;;;1.38;1.33;;;8.20;99.90;;;;;;4995395;28;20060;-80
2023/03/25 00:10:01;;;;;;;2.17;1.40;;;8.10;99.90;;;;;;5004224;28;20113;-77
2023/03/25 00:12:27;;;;;;;3.78;1.95;;;8.20;99.90;;;;;;5004305;28;20032;-82
2023/03/25 00:14:53;;;;;;;2.17;1.50;;;8.20;99.90;;;;;;4991042;28;20038;-81
2023/03/25 00:17:25;;;;;;;1.67;1.58;;;8.20;99.90;;;;;;5010817;28;20039;-81
2023/03/25 00:19:51;;;;;;;2.13;1.80;;;8.20;99.90;;;;;;4994687;28;20097;-81
2023/03/25 00:22:18;;;;;;;1.63;1.52;;;8.20;99.90;;;;;;4995443;28;20058;-79
2023/03/25 00:24:43;;;;;;;2.47;1.27;;;8.30;99.90;;;;;;4995604;28;20426;-78
2023/03/25 00:27:09;;;;;;;1.73;1.33;;;8.40;99.90;;;;;;4979896;28;20043;-79
2023/03/25 00:29:35;;;;;;;2.53;1.60;;;8.40;99.90;;;;;;5000764;28;20121;-80
2023/03/25 00:32:00;;;;;;;2.55;1.30;;;8.40;99.90;;;;;;4991426;28;20031;-79
2023/03/25 00:34:26;;;;;;;3.47;3.03;;;8.40;99.90;;;;;;5016596;28;20042;-80
2023/03/25 00:36:52;;;;;;;1.45;1.35;;;8.40;99.90;;;;;;4988911;28;20030;-79
2023/03/25 00:39:18;;;;;;;3.38;1.60;;;8.40;99.90;;;;;;5007133;28;20049;-79
2023/03/25 00:41:43;;;;;;;1.67;1.00;;;8.50;99.90;;;;;;5006403;28;20034;-80
2023/03/25 00:44:15;;;;;;;1.77;1.50;;;8.50;99.90;;;;;;4991609;28;20030;-80
2023/03/25 00:46:41;;;;;;;3.17;1.95;;;8.60;99.90;;;;;;4996932;28;20018;-80
2023/03/25 00:49:08;;;;;;;3.95;1.30;;;8.50;99.90;;;;;;5001900;28;20034;-80
2023/03/25 00:51:34;;;;;;;1.63;1.35;;;8.50;99.90;;;;;;4993260;28;20022;-81
2023/03/25 00:53:59;;;;;;;4.10;2.17;;;8.60;99.90;;;;;;5007298;28;20034;-80
2023/03/25 00:56:26;;;;;;;2.13;1.30;;;8.50;99.90;;;;;;4985650;28;20038;-80
2023/03/25 00:58:52;;;;;;;2.95;1.63;;;8.60;99.90;;;;;;4974961;28;20032;-80
2023/03/25 01:01:25;;;;;;;1.40;1.30;;;8.60;99.90;;;;;;4982837;28;20129;-80
2023/03/25 01:03:56;;;;;;;4.75;2.10;;;8.60;99.90;;;;;;4980823;28;20090;-80
2023/03/25 01:06:27;;;;;;;2.42;2.22;;;8.50;99.90;;;;;;4980824;28;20043;-80
2023/03/25 01:08:55;;;;;;;6.57;3.28;;;8.50;99.90;;;;;;4977876;28;20187;-79
2023/03/25 01:11:27;;;;;;;2.57;2.03;;;8.50;99.90;;;;;;4975349;28;20030;-80
2023/03/25 01:13:55;;;;;;;1.38;1.33;;;8.50;99.90;;;;;;4977879;28;20311;-80
2023/03/25 01:16:21;;;;;;;2.33;1.45;;;8.50;99.90;;;;;;4982789;28;20081;-80
2023/03/25 01:18:47;;;;;;;4.68;1.90;;;8.40;99.90;;;;;;4977340;28;20087;-80
2023/03/25 01:21:13;;;;;;;2.58;1.60;;;8.40;99.90;;;;;;4988196;28;20039;-82
2023/03/25 01:23:40;;;;;;;2.40;1.40;;;8.40;99.90;;;;;;4974835;28;20322;-83
2023/03/25 01:26:05;;;;;;;2.75;1.40;;;8.40;99.90;;;;;;4976777;28;20785;-80
2023/03/25 01:28:31;;;;;;;6.90;1.60;;;8.40;99.90;;;;;;4974746;28;20060;-81
2023/03/25 01:31:05;;;;;;;2.17;1.48;;;8.30;99.90;;;;;;4975259;28;20991;-80
2023/03/25 01:33:31;;;;;;;1.40;1.30;;;8.30;99.90;;;;;;4976826;28;20046;-80
2023/03/25 01:35:58;;;;;;;3.47;2.60;;;8.40;99.90;;;;;;4980343;28;20034;-79
2023/03/25 01:38:23;;;;;;;2.45;1.58;;;8.40;99.90;;;;;;4972473;28;20045;-79
2023/03/25 01:40:53;;;;;;;0.80;0.80;;;8.40;99.90;;;;;;4976478;28;20038;-79
2023/03/25 01:43:20;;;;;;;1.65;1.10;;;8.40;99.90;;;;;;4974993;28;21168;-79
2023/03/25 01:45:46;;;;;;;3.33;1.40;;;8.50;99.90;;;;;;4995166;28;20051;-80
2023/03/25 01:48:34;;;;;;;1.45;1.35;;;8.50;99.90;;;;;;4973084;28;20632;-80
2023/03/25 01:51:07;;;;;;;1.13;1.05;;;8.50;99.90;;;;;;4976247;28;20035;-80
2023/03/25 01:53:32;;;;;;;2.28;1.38;;;8.50;99.90;;;;;;4981566;28;20134;-79
2023/03/25 01:56:02;;;;;;;1.25;1.15;;;8.50;99.90;;;;;;4976340;28;20129;-79
2023/03/25 01:58:30;;;;;;;2.13;1.10;;;8.50;99.90;;;;;;4982690;28;20049;-79
2023/03/25 02:00:56;;;;;;;2.42;1.40;;;8.40;99.90;;;;;;4976063;28;20047;-79
2023/03/25 02:03:23;;;;;;;2.33;1.20;;;8.40;99.90;;;;;;4978134;28;20038;-79
2023/03/25 02:05:57;;;;;;;1.23;1.13;;;8.50;99.90;;;;;;4976502;28;20060;-78
2023/03/25 02:08:24;;;;;;;1.85;0.95;;;8.50;99.90;;;;;;4975137;28;20261;-79
2023/03/25 02:10:52;;;;;;;1.83;1.73;;;8.60;99.90;;;;;;4971848;28;20019;-79
2023/03/25 02:13:18;;;;;;;1.10;1.00;;;8.60;99.90;;;;;;4988917;28;20468;-79
2023/03/25 02:16:07;;;;;;;2.40;0.98;;;8.60;99.90;;;;;;4991811;28;20041;-79
2023/03/25 02:18:43;;;;;;;0.95;0.90;;;8.60;99.90;;;;;;5003360;28;20042;-79
2023/03/25 02:21:28;;;;;;;2.22;1.10;;;8.60;99.90;;;;;;4990953;28;20049;-78
2023/03/25 02:24:19;;;;;;;1.05;1.02;;;8.70;99.90;;;;;;4997202;28;20047;-78
2023/03/25 02:27:40;;;;;;;3.35;1.75;;;8.70;99.90;;;;;;4993792;28;20034;-79
2023/03/25 02:30:25;;;;;;;2.25;2.08;;;8.60;99.90;;;;;;4988947;28;20136;-79
2023/03/25 02:32:55;;;;;;;2.08;1.50;;;8.60;99.90;;;;;;4987916;28;20038;-80
2023/03/25 02:36:03;;;;;;;2.00;1.13;;;8.60;99.90;;;;;;4981031;28;20073;-80
2023/03/25 02:38:54;;;;;;;1.23;0.90;;;8.60;99.90;;;;;;4981907;28;20025;-79
2023/03/25 02:41:30;;;;;;;1.15;0.77;;;8.60;99.90;;;;;;4975180;28;20038;-79
2023/03/25 02:44:00;;;;;;;2.72;1.27;;;8.60;99.90;;;;;;5004143;28;20037;-78
2023/03/25 02:46:27;;;;;;;1.02;0.90;;;8.60;99.90;;;;;;5014427;28;20034;-79
2023/03/25 02:49:16;;;;;;;1.30;1.20;;;8.60;99.90;;;;;;5009541;28;20065;-79
2023/03/25 02:51:48;;;;;;;1.23;1.02;;;8.50;99.90;;;;;;4996291;28;20057;-79
2023/03/25 02:54:15;;;;;;;0.98;0.98;;;8.50;99.90;;;;;;4994995;28;20015;-80
2023/03/25 02:56:44;;;;;;;1.35;0.90;;;8.40;99.90;;;;;;4997962;28;20035;-79
2023/03/25 02:59:15;;;;;;;1.40;0.82;;;8.20;99.90;;;;;;5000661;28;20049;-78
2023/03/25 03:01:41;;;;;;;1.73;1.20;;;8.00;99.90;;;;;;5001605;28;20426;-79
2023/03/25 03:04:07;;;;;;;1.83;0.98;;;7.90;99.90;;;;;;4997962;28;20034;-79
2023/03/25 03:06:40;;;;;;;2.50;0.70;;;7.90;99.90;;;;;;4992117;28;20067;-78
2023/03/25 03:09:31;;;;;;;1.52;0.85;;;7.80;99.90;;;;;;5004468;28;20036;-79
2023/03/25 03:12:05;;;;;;;1.30;1.17;;;7.70;99.90;;;;;;4996308;28;20026;-79
2023/03/25 03:14:45;;;;;;;0.80;0.80;;;7.70;99.90;;;;;;4994477;28;20510;-78
2023/03/25 03:17:23;;;;;;;0.88;0.88;;;7.60;99.90;;;;;;4995105;28;20026;-80
2023/03/25 03:20:01;;;;;;;0.77;0.77;;;7.60;99.90;;;;;;4993698;28;20481;-79
2023/03/25 03:22:35;;;;;;;1.92;0.85;;;7.60;99.90;;;;;;4995564;28;20046;-78
2023/03/25 03:25:22;;;;;;;2.28;1.10;;;7.50;99.90;;;;;;4997428;28;20037;-79
2023/03/25 03:27:55;;;;;;;1.98;0.90;;;7.50;99.90;;;;;;4992624;28;20030;-79
2023/03/25 03:30:42;;;;;;;4.68;0.95;;;7.50;99.90;;;;;;4995731;28;20034;-79
2023/03/25 03:33:20;;;;;;;1.20;0.70;;;7.60;99.90;;;;;;4975349;28;20042;-79
2023/03/25 03:36:16;;;;;;;4.57;1.00;;;7.60;99.90;;;;;;4972555;28;20035;-79
2023/03/25 03:39:00;;;;;;;1.98;0.80;;;7.70;99.90;;;;;;4978493;28;20058;-79
2023/03/25 03:41:27;;;;;;;2.28;1.00;;;7.80;99.90;;;;;;4966035;28;20030;-79
2023/03/25 03:43:58;;;;;;;6.60;0.90;;;7.80;99.90;;;;;;4976135;28;20079;-79
2023/03/25 03:46:40;;;;;;;3.22;0.70;;;7.80;99.90;;;;;;4970015;28;20035;-78
2023/03/25 03:49:10;;;;;;;2.20;0.90;;;7.80;99.90;;;;;;4975959;28;20062;-78
2023/03/25 03:51:42;;;;;;;2.53;0.63;;;7.90;99.90;;;;;;4976854;28;20054;-79
2023/03/25 03:54:25;;;;;;;0.93;0.85;;;7.80;99.90;;;;;;4978945;28;20747;-79
2023/03/25 03:57:29;;;;;;;1.30;0.70;;;7.90;99.90;;;;;;4973208;28;20113;-79
2023/03/25 04:00:27;;;;;;;1.05;0.80;;;7.90;99.90;;;;;;4983326;28;20057;-80
2023/03/25 04:03:14;;;;;;;0.60;0.60;;;7.90;99.90;;;;;;5003848;28;20161;-80
2023/03/25 04:05:46;;;;;;;1.50;0.90;;;8.00;99.90;;;;;;5001061;28;20106;-80
2023/03/25 04:08:35;;;;;;;1.67;0.60;;;8.00;99.90;;;;;;5028817;28;20112;-79
2023/03/25 04:11:08;;;;;;;0.80;0.80;;;8.00;99.90;;;;;;4990237;28;20030;-79
2023/03/25 04:13:38;;;;;;;0.70;0.68;;;8.00;99.90;;;;;;4986762;28;20046;-80
2023/03/25 04:16:05;;;;;;;1.85;0.73;;;8.00;99.90;;;;;;5034040;28;20057;-80
2023/03/25 04:18:32;;;;;;;1.27;0.88;;;8.00;99.90;;;;;;5002798;28;20971;-79
2023/03/25 04:20:59;;;;;;;0.73;0.68;;;8.00;99.90;;;;;;4997951;28;20045;-80
2023/03/25 04:23:28;;;;;;;0.95;0.77;;;8.00;99.90;;;;;;4991437;28;20061;-79
2023/03/25 04:25:55;;;;;;;1.45;1.08;;;7.90;99.90;;;;;;4995411;28;20115;-80
2023/03/25 04:28:22;;;;;;;1.13;0.75;;;7.90;99.90;;;;;;5004352;28;20126;-79
2023/03/25 04:30:54;;;;;;;2.33;0.80;;;7.80;99.90;;;;;;4987306;28;20038;-79
2023/03/25 04:33:21;;;;;;;1.65;1.00;;;7.90;99.90;;;;;;4999890;28;20034;-79
2023/03/25 04:35:49;;;;;;;4.68;0.88;;;7.80;99.90;;;;;;5005640;28;20037;-79
2023/03/25 04:38:15;;;;;;;;;;;7.80;99.90;;;;;;5000824;28;20042;-80
2023/03/25 04:40:45;;;;;;;2.05;1.00;;;7.80;99.90;;;;;;5004259;28;19913;-78
2023/03/25 04:43:14;;;;;;;0.80;0.80;;;7.70;99.90;;;;;;4999615;28;20038;-78
2023/03/25 04:45:47;;;;;;;2.47;0.85;;;7.70;99.90;;;;;;4995384;28;20045;-79
2023/03/25 04:48:28;;;;;;;2.40;0.85;;;7.60;99.90;;;;;;5001912;28;20026;-79
2023/03/25 04:50:56;;;;;;;1.55;1.10;;;7.60;99.90;;;;;;4993624;28;20050;-79
2023/03/25 04:53:22;;;;;;;1.83;1.10;;;7.60;99.90;;;;;;5003702;28;20041;-78
2023/03/25 04:55:49;;;;;;;4.10;1.38;;;7.60;99.90;;;;;;4993509;28;20038;-78
2023/03/25 04:58:15;;;;;;;1.00;0.90;;;7.60;99.90;;;;;;5000239;28;20042;-79
2023/03/25 05:00:42;;;;;;;2.85;1.10;;;7.60;99.90;;;;;;5001465;28;20038;-79
2023/03/25 05:03:10;;;;;;;2.27;1.07;;;7.70;99.90;;;;;;4997930;28;20026;-80
2023/03/25 05:05:36;;;;;;;2.10;0.93;;;7.60;99.90;;;;;;5006174;28;20066;-79
2023/03/25 05:08:02;;;;;;;0.90;0.90;;;7.60;99.90;;;;;;5009241;28;20034;-79
2023/03/25 05:10:28;;;;;;;0.60;0.60;;;7.60;99.90;;;;;;4988112;28;20030;-78
2023/03/25 05:13:02;;;;;;;2.75;0.75;;;7.60;99.90;;;;;;4994090;28;20038;-78
2023/03/25 05:15:31;;;;;;;1.23;0.77;;;7.60;99.90;;;;;;5003861;28;20449;-78
2023/03/25 05:17:57;;;;;;;1.23;1.13;;;7.60;99.90;;;;;;5007004;28;20093;-79
2023/03/25 05:20:23;;;;;;;1.33;1.15;;;7.60;99.90;;;;;;4994014;28;20026;-78
2023/03/25 05:22:52;;;;;;;1.15;0.70;;;7.60;99.90;;;;;;5003290;28;20521;-78
2023/03/25 05:25:21;;;;;;;1.25;0.65;;;7.60;99.90;;;;;;5001574;28;20027;-78
2023/03/25 05:27:47;;;;;;;0.60;0.60;;;7.60;99.90;;;;;;5003532;28;20098;-78
2023/03/25 05:30:13;;;;;;;1.85;0.82;;;7.60;99.90;;;;;;4999767;28;20037;-77
2023/03/25 05:32:39;;;;;;;3.15;1.00;;;7.60;99.90;;;;;;5007269;28;20034;-79
2023/03/25 05:35:06;;;;;;;0.93;0.80;;;7.60;99.90;;;;;;5003463;28;20028;-78
2023/03/25 05:37:32;;;;;;;1.45;0.90;;;7.60;99.90;;;;;;5007893;28;20030;-78
2023/03/25 05:39:57;;;;;;;1.55;0.90;;;7.60;99.90;;;;;;5003911;28;20049;-78
2023/03/25 05:42:23;;;;;;;1.27;0.60;;;7.60;99.90;;;;;;4999053;28;20110;-79
2023/03/25 05:44:50;;;;;;;1.67;0.88;;;7.50;99.90;;;;;;5004085;28;20049;-79
2023/03/25 05:47:25;;;;;;;1.95;0.70;;;7.50;99.90;;;;;;5015174;28;20033;-79
2023/03/25 05:49:52;;;;;;;2.58;0.60;;;7.50;99.90;;;;;;4998613;28;20034;-80
2023/03/25 05:52:19;;;;;;;1.85;0.90;;;7.50;99.90;;;;;;5000079;28;20048;-79
2023/03/25 05:54:49;;;;;;;4.57;0.82;;;7.50;99.90;;;;;;4993530;28;20395;-78
2023/03/25 05:57:15;;;;;;;2.70;0.80;;;7.50;99.90;;;;;;4994953;28;20037;-79
2023/03/25 05:59:41;;;;;;;1.13;0.60;;;7.50;99.90;;;;;;5002231;28;20536;-78
2023/03/25 06:02:12;;;;;;;2.45;0.95;;;7.50;99.90;;;;;;4999374;28;20037;-79
2023/03/25 06:04:40;;;;;;;0.50;0.50;;;7.50;99.90;;;;;;4997166;28;20058;-79
2023/03/25 06:07:13;;;;;;;1.43;0.90;;;7.50;99.90;;;;;;4998647;28;20513;-79
2023/03/25 06:09:45;;;;;;;1.80;0.90;;;7.50;99.90;;;;;;4997975;28;20034;-79
2023/03/25 06:12:16;;;;;;;1.35;0.70;;;7.50;99.90;;;;;;4999290;28;20033;-78
2023/03/25 06:14:44;;;;;;;0.50;0.50;;;7.50;99.90;;;;;;4993473;28;20031;-78
2023/03/25 06:17:14;;;;;;;0.68;0.68;;;7.50;99.90;;;;;;4994735;28;20034;-79
2023/03/25 06:19:40;;;;;;;0.68;0.63;;;7.50;99.90;;;;;;5001345;28;20397;-79
2023/03/25 06:22:08;;;;;;;0.50;0.50;;;7.50;99.90;;;;;;4996798;28;20049;-79
2023/03/25 06:24:43;;;;;;;0.73;0.60;;;7.50;99.90;;;;;;5007438;28;20038;-79
2023/03/25 06:27:13;;;;;;;0.75;0.65;;;7.50;99.90;;;;;;4992367;28;20053;-78
2023/03/25 06:29:42;;;;;;;1.55;0.80;;;7.50;99.90;;;;;;5002976;28;20027;-79
2023/03/25 06:32:15;;;;;;;1.65;0.80;;;7.50;99.90;;;;;;4998261;28;20060;-79
2023/03/25 06:34:41;;;;;;;1.38;0.73;;;7.50;99.90;;;;;;5002499;28;20063;-79
2023/03/25 06:37:07;;;;;;;2.58;0.70;;;7.50;99.90;;;;;;4996443;28;20113;-80
2023/03/25 06:39:36;;;;;;;0.80;0.80;;;7.50;99.90;;;;;;5007157;28;20041;-80
2023/03/25 06:42:04;;;;;;;1.88;0.50;;;7.40;99.90;;;;;;4997669;28;20049;-78
2023/03/25 06:44:30;;;;;;;0.80;0.80;;;7.30;99.90;;;;;;5008183;28;20045;-78
2023/03/25 06:46:56;;;;;;;1.17;0.55;;;7.30;99.90;;;;;;4992515;28;20034;-78
2023/03/25 06:49:21;;;;;;;0.50;0.50;;;7.30;99.90;;;;;;4995198;28;20386;-78
2023/03/25 06:51:48;;;;;;;1.60;0.90;;;7.30;99.90;;;;;;5002991;28;20057;-79
2023/03/25 06:54:14;;;;;;;0.60;0.60;;;7.40;99.90;;;;;;4994521;28;20041;-79
2023/03/25 06:56:40;;;;;;;1.85;0.98;;;7.40;99.90;;;;;;4990056;28;20026;-79
2023/03/25 06:59:05;;;;;;;0.73;0.73;;;7.50;99.90;;;;;;5001725;28;20045;-78
2023/03/25 07:01:31;;;;;;;0.60;0.60;;;7.60;99.90;;;;;;4994372;28;20045;-78
2023/03/25 07:03:57;;;;;;;3.50;0.80;;;7.60;99.90;;;;;;4993587;28;20019;-79
2023/03/25 07:06:23;;;;;;;0.77;0.77;;;7.60;99.90;;;;;;5015271;28;20526;-79
2023/03/25 07:08:50;;;;;;;1.40;0.60;;;7.80;99.90;;;;;;4998071;28;20045;-79
2023/03/25 07:11:19;;;;;;;1.65;0.60;;;7.80;99.90;;;;;;4997684;28;20037;-78
2023/03/25 07:13:44;;;;;;;0.93;0.68;;;7.90;99.90;;;;;;4995079;28;20026;-78
2023/03/25 07:16:10;;;;;;;0.88;0.77;;;8.00;99.90;;;;;;4997792;28;20112;-79
2023/03/25 07:18:36;;;;;;;0.57;0.57;;;8.00;99.90;;;;;;4991992;28;20434;-78
2023/03/25 07:21:02;;;;;;;1.38;0.60;;;7.90;99.90;;;;;;4994724;28;20030;-78
2023/03/25 07:23:27;;;;;;;1.40;0.60;;;7.70;99.90;;;;;;4991797;28;20066;-79
2023/03/25 07:25:55;;;;;;;0.95;0.60;;;7.70;99.90;;;;;;5001673;28;20049;-80
2023/03/25 07:28:21;;;;;;;0.70;0.70;;;7.70;99.90;;;;;;4996295;28;20089;-79
2023/03/25 07:30:47;;;;;;;0.60;0.60;;;7.80;99.90;;;;;;4995458;28;20066;-80
2023/03/25 07:33:12;;;;;;;1.45;0.68;;;7.90;99.90;;;;;;4992743;28;20026;-79
2023/03/25 07:35:38;;;;;;;1.02;0.50;;;8.00;99.90;;;;;;4994723;28;20025;-80
2023/03/25 07:38:03;;;;;;;0.95;0.80;;;7.90;99.90;;;;;;5005066;28;20038;-79
2023/03/25 07:40:29;;;;;;;0.70;0.70;;;8.00;99.90;;;;;;5005502;28;20039;-79
2023/03/25 07:42:55;;;;;;;0.80;0.80;;;8.00;99.90;;;;;;4992403;28;20027;-78
2023/03/25 07:45:20;;;;;;;8.02;1.00;;;7.90;99.90;;;;;;4998424;28;20037;-78
2023/03/25 07:47:49;;;;;;;0.73;0.55;;;8.00;99.90;;;;;;4992779;28;20048;-79
2023/03/25 07:50:16;;;;;;;1.02;0.70;;;8.10;99.90;;;;;;4991122;28;20518;-79
2023/03/25 07:52:43;;;;;;;0.70;0.70;;;8.20;99.90;;;;;;4992895;28;20263;-80
2023/03/25 07:55:09;;;;;;;0.52;0.50;;;8.30;99.90;;;;;;5007017;28;20026;-80
2023/03/25 07:57:34;;;;;;;0.95;0.40;;;8.50;99.90;;;;;;4999881;28;20030;-80
2023/03/25 08:00:00;;;;;;;5.45;0.80;;;8.50;99.90;;;;;;4997892;28;20061;-78
2023/03/25 08:02:29;;;;;;;1.45;0.88;;;8.70;99.90;;;;;;4987369;28;20038;-78
2023/03/25 08:04:56;;;;;;;;;;;8.90;99.90;;;;;;4990733;28;20039;-78
2023/03/25 08:07:22;;;;;;;1.17;0.60;;;9.00;99.90;;;;;;4994132;28;19917;-78
2023/03/25 08:09:47;;;;;;;0.52;0.50;;;8.90;99.90;;;;;;5004783;28;20030;-78
2023/03/25 08:12:13;;;;;;;0.75;0.75;;;8.80;99.90;;;;;;4985950;28;20057;-79
2023/03/25 08:14:38;;;;;;;0.50;0.50;;;8.70;99.90;;;;;;5009004;28;20030;-79
2023/03/25 08:17:05;;;;;;;0.93;0.60;;;8.70;99.90;;;;;;4998185;28;20034;-81
2023/03/25 08:19:31;;;;;;;1.88;0.60;;;8.50;99.90;;;;;;5009833;28;20480;-78
2023/03/25 08:21:56;;;;;;;0.95;0.75;;;8.50;99.90;;;;;;4998962;28;20097;-78
2023/03/25 08:24:25;;;;;;;0.45;0.30;;;8.40;99.90;;;;;;4996233;28;20042;-81
2023/03/25 08:26:52;;;;;;;0.50;0.50;;;8.40;99.90;;;;;;4993967;28;20061;-79
2023/03/25 08:29:19;;;;;;;0.40;0.40;;;8.40;99.90;;;;;;4989185;28;20379;-82
2023/03/25 08:31:45;;;;;;;0.47;0.47;;;8.40;99.90;;;;;;4990702;28;20038;-79
2023/03/25 08:34:12;;;;;;;0.50;0.50;;;8.40;99.90;;;;;;4995100;28;20031;-79
2023/03/25 08:36:38;;;;;;;0.40;0.40;;;8.50;99.90;;;;;;4998535;28;20026;-78
2023/03/25 08:39:08;;;;;;;0.63;0.63;;;8.50;99.90;;;;;;5013431;28;20063;-79
2023/03/25 08:41:34;;;;;;;0.40;0.40;;;8.50;99.90;;;;;;4992503;28;20034;-79
2023/03/25 08:43:59;;;;;;;0.40;0.40;;;8.40;99.90;;;;;;5001668;28;20041;-79
2023/03/25 08:46:25;;;;;;;1.38;0.60;;;8.50;99.90;;;;;;4994361;28;20069;-78
2023/03/25 08:48:52;;;;;;;0.45;0.45;;;8.70;99.90;;;;;;5002844;28;20045;-78
2023/03/25 08:51:18;;;;;;;0.50;0.50;;;8.90;99.90;;;;;;4999790;28;20034;-80
2023/03/25 08:53:43;;;;;;;0.73;0.50;;;9.10;99.90;;;;;;5004278;28;20125;-80
2023/03/25 08:56:10;;;;;;;0.60;0.60;;;9.30;99.90;;;;;;4994830;28;20030;-79
2023/03/25 08:58:35;;;;;;;0.85;0.63;;;9.40;99.90;;;;;;5013331;28;20038;-79
2023/03/25 09:01:01;;;;;;;0.40;0.40;;;9.50;99.90;;;;;;4999635;28;20062;-80
2023/03/25 09:03:27;;;;;;;1.05;0.63;;;9.70;99.90;;;;;;5008585;28;20033;-79
2023/03/25 09:05:52;;;;;;;0.60;0.60;;;9.70;99.90;;;;;;4997245;28;20093;-79
2023/03/25 09:08:18;;;;;;;0.70;0.70;;;9.70;99.90;;;;;;5004097;28;20038;-80
2023/03/25 09:10:44;;;;;;;1.05;0.90;;;9.30;99.90;;;;;;4997387;28;20030;-79
2023/03/25 09:13:10;;;;;;;1.77;0.70;;;9.10;99.90;;;;;;4997820;28;20037;-78
2023/03/25 09:15:35;;;;;;;1.02;0.70;;;9.10;99.90;;;;;;4996056;28;20038;-79
2023/03/25 09:18:01;;;;;;;4.65;1.70;;;9.30;99.90;;;;;;4997151;28;20223;-79
2023/03/25 09:20:27;;;;;;;0.60;0.60;;;9.40;99.90;;;;;;5001310;28;20082;-79
2023/03/25 09:22:53;;;;;;;0.80;0.80;;;9.50;99.90;;;;;;4998335;28;20106;-80
2023/03/25 09:25:18;;;;;;;3.17;1.02;;;9.50;99.90;;;;;;5002824;28;20038;-80
2023/03/25 09:27:44;;;;;;;2.08;0.80;;;9.60;99.90;;;;;;5001100;28;20102;-80
2023/03/25 09:30:11;;;;;;;2.60;0.90;;;9.90;99.90;;;;;;5006877;28;20038;-78
2023/03/25 09:32:37;;;;;;;1.60;0.70;;;9.80;99.90;;;;;;4997719;28;20046;-79
2023/03/25 09:35:04;;;;;;;1.10;0.50;;;9.60;99.90;;;;;;4991118;28;20050;-79
2023/03/25 09:37:29;;;;;;;0.57;0.50;;;9.60;99.90;;;;;;4996055;28;20034;-78
2023/03/25 09:39:56;;;;;;;1.75;0.75;;;9.50;99.90;;;;;;5005958;28;20460;-78
2023/03/25 09:42:34;;;;;;;0.45;0.45;;;9.50;99.90;;;;;;5006115;28;20072;-79
2023/03/25 09:45:15;;;;;;;1.55;0.75;;;9.60;99.90;;;;;;5005554;28;20022;-80
2023/03/25 09:47:58;;;;;;;4.88;0.85;;;9.70;99.90;;;;;;5001497;28;20034;-79
2023/03/25 09:50:25;;;;;;;1.55;0.57;;;9.80;99.90;;;;;;4997482;28;20030;-81
2023/03/25 09:53:00;;;;;;;0.70;0.70;;;9.90;99.90;;;;;;5003074;28;20023;-80
2023/03/25 09:55:33;;;;;;;1.98;0.90;;;9.80;99.90;;;;;;5006973;28;20081;-81
2023/03/25 09:58:20;;;;;;;1.67;0.65;;;9.70;99.90;;;;;;4996413;28;20035;-81
2023/03/25 10:00:54;;;;;;;1.38;0.80;;;9.50;99.90;;;;;;4991842;28;20243;-81
2023/03/25 10:03:31;;;;;;;0.70;0.70;;;9.60;99.90;;;;;;4988587;28;20073;-80
2023/03/25 10:06:13;;;;;;;1.17;0.55;;;9.70;99.90;;;;;;4992429;28;20026;-81
2023/03/25 10:09:08;;;;;;;0.80;0.80;;;9.60;99.90;;;;;;4988199;28;20035;-81
2023/03/25 10:12:02;;;;;;;0.98;0.88;;;9.80;99.90;;;;;;5000937;28;20019;-81
2023/03/25 10:14:35;;;;;;;2.83;1.00;;;9.80;99.90;;;;;;5012896;28;20037;-82
2023/03/25 10:17:09;;;;;;;3.42;0.80;;;9.80;99.90;;;;;;4986697;28;20092;-82
2023/03/25 10:19:54;;;;;;;0.80;0.70;;;9.80;99.90;;;;;;4992223;28;20053;-82
2023/03/25 10:22:29;;;;;;;3.35;0.93;;;9.60;99.90;;;;;;4985284;28;20055;-82
2023/03/25 10:25:19;;;;;;;0.95;0.65;;;9.70;99.90;;;;;;4995316;28;20105;-81
2023/03/25 10:27:49;;;;;;;1.52;0.70;;;9.90;99.90;;;;;;4991446;28;20023;-80
2023/03/25 10:30:25;;;;;;;0.82;0.60;;;10.40;99.90;;;;;;4992132;28;20587;-80
2023/03/25 10:33:00;;;;;;;0.57;0.57;;;10.80;99.90;;;;;;4996233;28;20050;-81
2023/03/25 10:35:37;;;;;;;0.50;0.50;;;10.80;99.90;;;;;;4990585;28;20026;-81
2023/03/25 10:38:11;;;;;;;2.63;1.00;;;10.80;99.90;;;;;;4996138;28;20090;-82
2023/03/25 10:40:43;;;;;;;1.50;0.70;;;11.10;99.90;;;;;;4999425;28;20038;-81
2023/03/25 10:43:23;;;;;;;0.60;0.60;;;11.00;99.90;;;;;;5001747;28;20018;-81
2023/03/25 10:45:53;;;;;;;2.10;0.85;;;11.10;99.90;;;;;;4993811;28;20026;-82
2023/03/25 10:48:27;;;;;;;1.20;0.88;;;11.10;99.90;;;;;;5005779;28;20069;-82
2023/03/25 10:51:07;;;;;;;0.63;0.63;;;11.20;99.90;;;;;;4998123;28;20088;-82
2023/03/25 10:53:33;;;;;;;0.50;0.50;;;11.30;99.90;;;;;;4998907;28;20064;-82
2023/03/25 10:56:06;;;;;;;0.70;0.60;;;11.10;99.90;;;;;;4996222;28;20057;-81
2023/03/25 10:58:34;;;;;;;1.13;0.60;;;11.00;99.90;;;;;;4999082;28;20031;-82
2023/03/25 11:01:09;;;;;;;2.17;0.60;;;11.10;99.90;;;;;;4984194;28;20043;-82
2023/03/25 11:03:37;;;;;;;0.57;0.57;;;10.70;99.90;;;;;;4992091;28;20060;-81
2023/03/25 11:06:03;;;;;;;0.52;0.52;;;10.00;99.90;;;;;;4985405;28;20519;-80
2023/03/25 11:08:29;;;;;;;0.40;0.40;;;9.50;99.90;;;;;;5004677;28;20414;-79
2023/03/25 11:10:56;;;;;;;0.75;0.50;;;9.40;99.90;;;;;;5003370;28;20045;-80
2023/03/25 11:13:29;;;;;;;0.88;0.82;;;9.40;99.90;;;;;;4994591;28;20069;-80
2023/03/25 11:16:01;;;;;;;1.27;0.40;;;9.50;99.90;;;;;;4988814;28;20046;-79
2023/03/25 11:18:40;;;;;;;0.88;0.75;;;9.60;99.90;;;;;;4990220;28;20141;-80
2023/03/25 11:21:12;;;;;;;0.60;0.60;;;9.80;99.90;;;;;;4995074;28;20133;-79
2023/03/25 11:23:47;;;;;;;0.40;0.40;;;9.90;99.90;;;;;;5010421;28;20082;-80
2023/03/25 11:26:19;;;;;;;0.40;0.40;;;9.80;99.90;;;;;;4987672;28;20027;-78
2023/03/25 11:29:06;;;;;;;0.40;0.40;;;9.70;99.90;;;;;;5004421;28;20088;-81
2023/03/25 11:31:36;;;;;;;0.32;0.30;;;9.60;99.90;;;;;;4983642;28;20069;-80
2023/03/25 11:34:11;;;;;;;0.40;0.40;;;9.60;99.90;;;;;;4994204;28;20037;-80
2023/03/25 11:36:51;;;;;;;0.40;0.40;;;9.70;99.90;;;;;;4993299;28;20038;-81
2023/03/25 11:39:38;;;;;;;0.40;0.40;;;9.80;99.90;;;;;;5007041;28;20027;-81
2023/03/25 11:42:41;;;;;;;0.73;0.45;;;9.90;99.90;;;;;;4992874;28;20438;-80
2023/03/25 11:45:19;;;;;;;0.40;0.40;;;10.30;99.90;;;;;;4992281;28;20045;-81
2023/03/25 11:47:45;;;;;;;2.53;0.55;;;10.60;99.90;;;;;;4996573;28;20038;-82
2023/03/25 11:50:21;;;;;;;0.50;0.50;;;10.60;99.90;;;;;;4998886;28;20030;-82
2023/03/25 11:52:50;;;;;;;0.50;0.50;;;10.70;99.90;;;;;;4998899;28;20030;-82
2023/03/25 11:55:29;;;;;;;0.40;0.40;;;10.60;99.90;;;;;;5001327;28;20037;-80
2023/03/25 11:58:00;;;;;;;0.40;0.40;;;10.60;99.90;;;;;;5004966;28;20037;-82
2023/03/25 12:00:37;;;;;;;0.50;0.50;;;10.90;99.90;;;;;;4988647;28;20042;-83
2023/03/25 12:03:12;;;;;;;0.38;0.38;;;11.20;99.90;;;;;;4987266;28;20069;-82
2023/03/25 12:05:39;;;;;;;0.30;0.30;;;11.00;99.90;;;;;;4971827;28;20035;-82
2023/03/25 12:08:15;;;;;;;0.30;0.30;;;10.90;99.90;;;;;;4992772;28;20042;-81
2023/03/25 12:10:46;;;;;;;0.50;0.50;;;11.00;99.90;;;;;;4972772;28;20443;-81
2023/03/25 12:13:18;;;;;;;0.50;0.50;;;10.90;99.90;;;;;;4974791;28;20034;-82
2023/03/25 12:15:57;;;;;;;0.55;0.55;;;11.20;99.90;;;;;;4984980;28;20043;-82
2023/03/25 12:18:52;;;;;;;0.60;0.57;;;11.50;99.90;;;;;;4986416;28;20042;-81
2023/03/25 12:21:36;;;;;;;0.65;0.40;;;11.70;99.90;;;;;;4988973;28;20030;-82
2023/03/25 12:24:14;;;;;;;1.02;0.50;;;11.70;99.90;;;;;;4984199;28;20026;-83
2023/03/25 12:26:56;;;;;;;0.93;0.40;;;11.60;99.90;;;;;;4980379;28;20031;-83
2023/03/25 12:29:34;;;;;;;0.43;0.43;;;11.80;99.90;;;;;;4982470;28;20042;-82
2023/03/25 12:32:12;;;;;;;1.08;0.38;;;11.50;99.90;;;;;;4980966;28;20042;-82
2023/03/25 12:34:50;;;;;;;1.20;0.37;;;11.50;99.90;;;;;;4976126;28;20110;-82
2023/03/25 12:38:19;;;;;;;0.65;0.30;;;11.60;99.90;;;;;;5014217;28;20297;-83
2023/03/25 12:41:06;;;;;;;1.52;0.50;;;12.10;99.90;;;;;;4982769;28;20050;-82
2023/03/25 12:43:50;;;;;;;0.40;0.40;;;11.80;96.90;;;;;;4982711;28;20029;-81
2023/03/25 12:46:25;;;;;;;2.25;0.50;;;11.50;98.70;;;;;;4991927;28;20031;-80
2023/03/25 12:49:16;;;;;;;2.97;0.50;;;11.60;99.90;;;;;;4981352;28;20085;-82
2023/03/25 12:52:03;;;;;;;0.77;0.40;;;11.70;99.90;;;;;;4981486;28;20030;-81
2023/03/25 12:54:42;;;;;;;0.60;0.60;;;11.90;97.60;;;;;;4989190;28;20027;-80
2023/03/25 12:57:30;;;;;;;0.50;0.50;;;11.70;98.20;;;;;;4975257;28;20086;-80
2023/03/25 13:00:40;;;;;;;0.32;0.32;;;11.50;98.90;;;;;;4972818;28;20046;-82
2023/03/25 13:03:19;;;;;;;0.30;0.30;;;11.60;99.90;;;;;;4967948;28;20047;-81
2023/03/25 13:05:57;;;;;;;0.50;0.50;;;11.70;96.90;;;;;;4962094;28;20054;-81
2023/03/25 13:08:47;;;;;;;0.55;0.38;;;11.50;95.50;;;;;;4988994;28;20042;-80
2023/03/25 13:11:53;;;;;;;0.40;0.40;;;11.80;99.90;;;;;;5006336;28;20050;-80
2023/03/25 13:14:22;;;;;;;0.30;0.30;;;11.80;96.50;;;;;;4994645;28;20041;-80
2023/03/25 13:16:49;;;;;;;;;;;11.60;96.60;;;;;;4991615;28;20022;-79
2023/03/25 13:19:22;;;;;;;0.40;0.40;;;11.60;96.90;;;;;;5006713;28;19917;-81